Time;durP1;ratioP1;P1;durP2;ratioP2;P2;SDS_P1;SDS_P2;PMS_P1;PMS_P2;Temp;Humidity;BMP_temperature;BMP_pressure;BME280_temperature;BME280_humidity;BME280_pressure;Samples;Min_cycle;Max_cycle;Signal;HPM_P1;HPM_P2
2022/01/12 00:01:43;;;;;;;16.67;7.93;;;;;;;-4.41;100.00;91116.19;5090859;28;20024;-66
2022/01/12 00:04:12;;;;;;;14.02;6.85;;;;;;;-4.46;100.00;91111.63;5090755;28;20032;-66
2022/01/12 00:06:37;;;;;;;11.80;7.35;;;;;;;-4.53;100.00;91119.50;5090570;28;20506;-66
2022/01/12 00:09:06;;;;;;;19.48;8.38;;;;;;;-4.64;100.00;91117.59;5090759;28;20028;-66
2022/01/12 00:11:34;;;;;;;19.23;8.40;;;;;;;-4.47;100.00;91115.22;5090730;28;20020;-66
2022/01/12 00:14:00;;;;;;;17.33;8.00;;;;;;;-4.54;100.00;91110.13;5090619;28;20024;-66
2022/01/12 00:16:25;;;;;;;14.65;7.65;;;;;;;-4.63;100.00;91129.56;5090687;28;20115;-66
2022/01/12 00:18:51;;;;;;;13.18;7.28;;;;;;;-4.78;100.00;91136.06;5090686;28;20490;-65
2022/01/12 00:21:16;;;;;;;13.77;6.80;;;;;;;-4.73;100.00;91128.44;5090604;28;20097;-65
2022/01/12 00:23:42;;;;;;;15.55;7.78;;;;;;;-4.70;100.00;91131.41;5090521;28;20035;-65
2022/01/12 00:26:12;;;;;;;15.13;7.57;;;;;;;-4.62;100.00;91130.34;5090604;28;20120;-65
2022/01/12 00:34:08;;;;;;;15.90;7.55;;;;;;;-4.61;100.00;91143.09;5090792;28;20101;-66
2022/01/12 00:36:35;;;;;;;15.88;8.32;;;;;;;-4.57;100.00;91139.09;5090455;28;20077;-65
2022/01/12 00:39:03;;;;;;;17.83;8.65;;;;;;;-4.76;100.00;91127.06;5090448;28;20409;-65
2022/01/12 00:41:28;;;;;;;21.73;10.35;;;;;;;-4.55;100.00;91151.88;5090422;28;20111;-65
2022/01/12 00:43:59;;;;;;;23.40;11.63;;;;;;;-4.49;100.00;91145.81;5090338;28;20158;-65
2022/01/12 00:46:27;;;;;;;21.08;10.05;;;;;;;-4.36;100.00;91152.69;5090341;28;20043;-66
2022/01/12 00:48:54;;;;;;;23.08;9.63;;;;;;;-4.34;100.00;91151.47;5090407;28;20058;-66
2022/01/12 00:51:21;;;;;;;13.60;7.15;;;;;;;-4.41;100.00;91147.34;5090327;28;20036;-66
2022/01/12 00:53:46;;;;;;;17.25;8.32;;;;;;;-4.48;100.00;91142.19;5090184;28;20051;-65
2022/01/12 00:56:12;;;;;;;16.08;7.47;;;;;;;-4.57;100.00;91148.69;5090711;28;20177;-66
2022/01/12 00:58:37;;;;;;;17.75;9.40;;;;;;;-4.49;100.00;91147.59;5094112;28;20501;-65
2022/01/12 01:01:04;;;;;;;19.05;9.02;;;;;;;-4.42;100.00;91150.94;5094014;28;20039;-65
2022/01/12 01:03:31;;;;;;;16.88;8.30;;;;;;;-4.46;100.00;91134.19;5093877;28;20028;-66
2022/01/12 01:05:57;;;;;;;13.07;7.28;;;;;;;-4.56;100.00;91148.47;5093800;28;20115;-67
2022/01/12 01:08:23;;;;;;;14.90;7.63;;;;;;;-4.60;100.00;91146.50;5075687;28;20500;-66
2022/01/12 01:10:51;;;;;;;13.35;7.63;;;;;;;-4.59;100.00;91145.47;5093753;28;20450;-65
2022/01/12 01:13:23;;;;;;;14.45;7.07;;;;;;;-4.50;100.00;91136.44;5093545;28;20028;-65
2022/01/12 01:26:33;;;;;;;14.32;7.72;;;;;;;-4.43;100.00;91144.16;5093852;28;20031;-65
2022/01/12 01:28:58;;;;;;;14.45;7.75;;;;;;;-4.57;100.00;91141.69;5093484;28;20040;-65
2022/01/12 01:31:30;;;;;;;14.93;7.28;;;;;;;-4.47;100.00;91143.00;5093425;28;20405;-65
2022/01/12 01:33:56;;;;;;;16.23;8.88;;;;;;;-4.45;100.00;91148.78;5093287;28;20404;-65
2022/01/12 01:36:27;;;;;;;19.48;8.30;;;;;;;-4.59;100.00;91148.88;5093282;28;20020;-66
2022/01/12 01:38:53;;;;;;;14.85;6.85;;;;;;;-4.54;100.00;91143.06;5093302;28;20115;-66
2022/01/12 01:41:20;;;;;;;15.80;8.27;;;;;;;-4.42;100.00;91153.53;5093180;28;20144;-65
2022/01/12 01:54:51;;;;;;;14.48;6.93;;;;;;;-4.77;100.00;91168.78;5092803;28;20079;-65
2022/01/12 01:57:16;;;;;;;15.38;7.18;;;;;;;-4.92;100.00;91156.13;5092910;28;20052;-65
2022/01/12 01:59:42;;;;;;;15.57;8.25;;;;;;;-5.09;100.00;91139.50;5092907;28;20089;-65
2022/01/12 02:02:08;;;;;;;14.15;7.38;;;;;;;-5.00;100.00;91159.00;5092848;28;20081;-65
2022/01/12 02:04:33;;;;;;;15.70;7.57;;;;;;;-4.92;100.00;91156.13;5092719;28;20089;-65
2022/01/12 02:06:59;;;;;;;14.25;7.65;;;;;;;-4.79;100.00;91163.81;5092490;28;20055;-65
2022/01/12 02:09:28;;;;;;;11.73;6.35;;;;;;;-4.81;100.00;91165.84;5091608;28;20378;-65
2022/01/12 02:11:53;;;;;;;22.75;9.50;;;;;;;-4.84;100.00;91161.88;5092663;28;20101;-65
2022/01/12 02:14:20;;;;;;;15.85;7.57;;;;;;;-4.78;100.00;91168.00;5092543;28;20119;-65
2022/01/12 02:16:58;;;;;;;21.25;10.20;;;;;;;-4.74;100.00;91169.16;5092414;28;20474;-65
2022/01/12 02:36:08;;;;;;;125.97;49.42;;;;;;;-5.14;100.00;91190.19;5091995;28;20051;-66
2022/01/12 02:41:17;;;;;;;32.70;14.60;;;;;;;-5.21;100.00;91192.03;5091892;28;20535;-66
2022/01/12 02:54:39;;;;;;;11.70;6.40;;;;;;;-5.07;100.00;91189.34;5091605;28;20039;-66
2022/01/12 02:57:04;;;;;;;11.40;5.35;;;;;;;-5.12;100.00;91203.75;5091554;28;20020;-66
2022/01/12 02:59:30;;;;;;;16.30;7.30;;;;;;;-5.06;100.00;91196.13;5091604;28;20576;-65
2022/01/12 03:02:21;;;;;;;20.58;10.63;;;;;;;-4.96;100.00;91206.84;5091574;28;20024;-65
2022/01/12 03:05:11;;;;;;;36.20;16.00;;;;;;;-4.95;100.00;91201.44;5233603;22;20509;-64
2022/01/12 03:07:38;;;;;;;19.77;9.52;;;;;;;-4.87;100.00;91216.78;5091657;28;20055;-63
2022/01/12 03:10:05;;;;;;;13.75;7.90;;;;;;;-4.89;100.00;91210.19;5092094;28;20432;-64
2022/01/12 03:12:31;;;;;;;12.85;6.72;;;;;;;-4.90;100.00;91211.97;5091628;28;20454;-64
2022/01/12 03:14:56;;;;;;;13.70;7.18;;;;;;;-4.87;100.00;91214.19;5091532;28;20027;-64
2022/01/12 03:17:22;;;;;;;14.13;6.57;;;;;;;-4.91;100.00;91217.38;5091652;28;20123;-64
2022/01/12 03:19:47;;;;;;;14.95;7.72;;;;;;;-4.81;100.00;91217.72;5091354;28;20032;-64
2022/01/12 03:22:13;;;;;;;12.50;7.32;;;;;;;-5.00;100.00;91222.03;5091643;28;20028;-64
2022/01/12 03:24:39;;;;;;;13.65;6.68;;;;;;;-4.88;100.00;91217.78;5091478;28;20064;-64
2022/01/12 03:27:06;;;;;;;12.45;6.88;;;;;;;-4.94;100.00;91217.81;5091586;28;20063;-64
2022/01/12 03:29:32;;;;;;;13.10;7.00;;;;;;;-4.98;100.00;91229.63;5091374;28;20032;-63
2022/01/12 03:31:59;;;;;;;14.82;7.63;;;;;;;-5.02;100.00;91228.44;5091325;28;20031;-64
2022/01/12 03:34:30;;;;;;;15.48;8.23;;;;;;;-4.95;100.00;91227.38;5091177;28;20036;-64
2022/01/12 04:09:54;;;;;;;14.77;7.13;;;;;;;-5.35;100.00;91270.09;5091234;28;20165;-64
2022/01/12 04:12:20;;;;;;;13.55;6.90;;;;;;;-5.50;100.00;91273.72;5091018;28;20055;-64
2022/01/12 04:14:45;;;;;;;11.85;6.32;;;;;;;-5.49;100.00;91275.31;5090857;28;20032;-64
2022/01/12 04:17:11;;;;;;;14.40;7.30;;;;;;;-5.43;100.00;91284.06;5090900;28;20540;-64
2022/01/12 04:19:37;;;;;;;16.02;7.68;;;;;;;-5.50;100.00;91289.28;5091113;28;20024;-64
2022/01/12 04:23:16;;;;;;;15.85;7.65;;;;;;;-5.30;100.00;91281.44;5065632;28;20401;-63
2022/01/12 04:24:49;;;;;;;14.10;7.43;;;;;;;-5.38;100.00;91286.84;5071873;28;20045;-64
2022/01/12 04:27:14;;;;;;;15.55;7.38;;;;;;;-5.35;100.00;91290.84;5070897;28;20520;-63
2022/01/12 04:29:40;;;;;;;24.58;10.85;;;;;;;-5.32;100.00;91291.22;5070599;28;20054;-64
2022/01/12 04:32:06;;;;;;;59.78;22.77;;;;;;;-5.24;100.00;91296.16;5072464;28;20028;-63
2022/01/12 04:34:31;;;;;;;40.92;15.90;;;;;;;-5.22;100.00;91288.97;5074230;28;20522;-64
2022/01/12 04:36:57;;;;;;;17.90;7.72;;;;;;;-5.15;100.00;91307.09;5074326;28;20031;-64
2022/01/12 04:39:22;;;;;;;15.48;7.32;;;;;;;-5.24;100.00;91298.75;5074384;28;20387;-64
2022/01/12 04:41:48;;;;;;;22.15;10.48;;;;;;;-5.34;100.00;91298.41;5056231;28;20028;-63
2022/01/12 04:44:13;;;;;;;19.67;8.25;;;;;;;-5.30;100.00;91302.16;5074115;28;20032;-64
2022/01/12 04:46:51;;;;;;;15.80;8.10;;;;;;;-5.27;100.00;91309.53;5077360;28;20147;-64
2022/01/12 04:51:46;;;;;;;17.30;7.90;;;;;;;-5.37;100.00;91306.56;5074366;28;20035;-64
2022/01/12 04:54:11;;;;;;;19.63;10.32;;;;;;;-5.32;100.00;91306.78;5073991;28;20028;-63
2022/01/12 04:56:37;;;;;;;28.20;12.57;;;;;;;-5.40;100.00;91303.59;5073978;28;20027;-63
2022/01/12 04:59:02;;;;;;;39.17;19.38;;;;;;;-5.27;100.00;91314.72;5074075;28;20431;-64
2022/01/12 05:01:35;;;;;;;37.58;19.42;;;;;;;-5.32;100.00;91316.34;5073955;28;20044;-63
2022/01/12 05:06:54;;;;;;;39.20;15.77;;;;;;;-5.37;100.00;91316.94;5073885;28;20102;-63
2022/01/12 05:09:47;;;;;;;25.58;12.35;;;;;;;-5.31;100.00;91328.31;5073866;28;20497;-64
2022/01/12 05:15:12;;;;;;;36.20;18.35;;;;;;;-5.30;100.00;91335.88;5073810;28;20098;-64
2022/01/12 05:17:37;;;;;;;21.08;10.55;;;;;;;-5.19;100.00;91337.84;5073673;28;20087;-64
2022/01/12 05:20:03;;;;;;;27.90;12.60;;;;;;;-5.16;100.00;91332.25;5073588;28;20054;-64
2022/01/12 05:22:29;;;;;;;49.72;22.67;;;;;;;-5.47;100.00;91340.72;5073568;28;20021;-64
2022/01/12 05:24:54;;;;;;;32.08;15.15;;;;;;;-5.43;100.00;91335.91;5073491;28;20119;-63
2022/01/12 05:27:20;;;;;;;35.40;12.18;;;;;;;-5.42;100.00;91340.88;5073480;28;20562;-64
2022/01/12 05:29:45;;;;;;;53.20;21.83;;;;;;;-5.37;100.00;91358.41;5073493;28;20032;-63
2022/01/12 05:32:11;;;;;;;41.58;18.60;;;;;;;-5.31;100.00;91349.84;5073644;28;20024;-64
2022/01/12 05:34:38;;;;;;;29.80;14.45;;;;;;;-5.48;100.00;91359.84;5073535;28;20090;-63
2022/01/12 05:37:04;;;;;;;42.90;16.95;;;;;;;-5.47;100.00;91358.84;5073239;28;20036;-64
2022/01/12 05:39:30;;;;;;;129.07;43.85;;;;;;;-5.34;100.00;91365.03;5073133;28;20035;-64
2022/01/12 05:41:55;;;;;;;29.67;12.77;;;;;;;-5.41;100.00;91380.56;5055049;28;20505;-64
2022/01/12 05:44:23;;;;;;;22.02;11.30;;;;;;;-5.45;100.00;91369.03;5072854;28;20120;-63
2022/01/12 05:46:48;;;;;;;27.65;12.80;;;;;;;-5.42;100.00;91378.97;5073010;28;20173;-63
2022/01/12 05:49:47;;;;;;;24.95;10.60;;;;;;;-5.42;100.00;91382.38;5073233;28;20452;-63
2022/01/12 05:52:06;;;;;;;46.63;21.75;;;;;;;-5.30;100.00;91382.56;5069818;28;20052;-63
2022/01/12 05:54:31;;;;;;;37.97;16.67;;;;;;;-5.42;100.00;91379.78;5072828;28;20021;-63
2022/01/12 05:56:57;;;;;;;40.22;18.52;;;;;;;-5.44;100.00;91388.75;5072833;28;20028;-63
2022/01/12 05:59:23;;;;;;;44.55;18.75;;;;;;;-5.42;100.00;91382.38;5072920;28;20112;-63
2022/01/12 06:01:48;;;;;;;34.60;15.57;;;;;;;-5.42;100.00;91403.09;5073101;28;20036;-64
2022/01/12 06:04:14;;;;;;;52.00;18.88;;;;;;;-5.49;100.00;91404.13;5072587;28;20028;-64
2022/01/12 06:06:39;;;;;;;93.20;41.92;;;;;;;-5.48;100.00;91406.50;5072469;28;20052;-63
2022/01/12 06:09:05;;;;;;;35.08;16.60;;;;;;;-5.23;100.00;91401.47;5072620;28;20060;-64
2022/01/12 06:11:30;;;;;;;37.65;17.55;;;;;;;-5.18;100.00;91408.66;5072604;28;20025;-64
2022/01/12 06:13:57;;;;;;;50.35;25.33;;;;;;;-5.32;100.00;91410.47;5072324;28;20017;-63
2022/01/12 06:16:23;;;;;;;21.20;11.75;;;;;;;-5.25;100.00;91411.25;5072284;28;20056;-64
2022/01/12 06:18:49;;;;;;;23.85;12.77;;;;;;;-5.33;100.00;91418.47;5072354;28;20543;-63
2022/01/12 06:21:14;;;;;;;29.67;14.13;;;;;;;-5.66;100.00;91413.31;5072438;28;20119;-63
2022/01/12 06:23:40;;;;;;;31.08;16.33;;;;;;;-5.50;100.00;91426.66;5072200;28;20178;-63
2022/01/12 06:26:05;;;;;;;20.88;10.90;;;;;;;-5.51;100.00;91432.84;5072167;28;20032;-63
2022/01/12 06:31:17;;;;;;;30.95;16.00;;;;;;;-5.56;100.00;91447.38;5073159;28;20033;-64
2022/01/12 06:33:45;;;;;;;21.15;11.13;;;;;;;-5.58;100.00;91446.78;5082184;28;20055;-64
2022/01/12 06:36:13;;;;;;;20.92;10.40;;;;;;;-5.73;100.00;91446.97;5072495;28;20036;-63
2022/01/12 06:38:39;;;;;;;29.92;15.23;;;;;;;-5.63;100.00;91452.56;5072071;28;20032;-64
2022/01/12 06:41:05;;;;;;;34.28;16.63;;;;;;;-5.48;100.00;91442.81;5071982;28;20110;-63
2022/01/12 06:43:31;;;;;;;19.00;10.85;;;;;;;-5.68;100.00;91451.56;5072079;28;20024;-63
2022/01/12 06:45:57;;;;;;;14.63;8.63;;;;;;;-5.62;100.00;91458.56;5071899;28;20465;-63
2022/01/12 06:48:22;;;;;;;26.30;13.13;;;;;;;-5.54;100.00;91455.75;5071916;28;20024;-63
2022/01/12 06:50:48;;;;;;;27.73;13.32;;;;;;;-5.49;100.00;91451.59;5071946;28;20029;-64
2022/01/12 06:53:13;;;;;;;31.67;17.65;;;;;;;-5.40;100.00;91457.34;5071840;28;20117;-63
2022/01/12 06:55:39;;;;;;;31.05;14.55;;;;;;;-5.43;100.00;91461.13;5071047;28;20036;-63
2022/01/12 06:58:04;;;;;;;33.75;13.27;;;;;;;-5.35;100.00;91467.94;5071347;28;20024;-64
2022/01/12 07:00:30;;;;;;;47.80;22.42;;;;;;;-5.44;100.00;91471.72;5071542;28;20115;-63
2022/01/12 07:02:56;;;;;;;18.00;10.38;;;;;;;-5.46;100.00;91460.75;5071510;28;20413;-64
2022/01/12 07:05:21;;;;;;;24.42;13.57;;;;;;;-5.21;100.00;91479.91;5053281;28;20517;-64
2022/01/12 07:07:47;;;;;;;28.65;16.17;;;;;;;-5.01;100.00;91473.88;5071285;28;20020;-64
2022/01/12 07:10:12;;;;;;;31.70;16.73;;;;;;;-4.99;100.00;91485.66;5071233;28;20025;-64
2022/01/12 07:12:38;;;;;;;35.65;18.58;;;;;;;-4.80;100.00;91486.59;5071235;28;20107;-64
2022/01/12 07:15:04;;;;;;;23.35;12.02;;;;;;;-4.87;100.00;91478.03;5053157;28;20028;-64
2022/01/12 07:17:29;;;;;;;15.75;8.52;;;;;;;-4.94;100.00;91485.03;5071218;28;20025;-64
2022/01/12 07:19:55;;;;;;;17.20;9.75;;;;;;;-4.88;100.00;91484.22;5071231;28;20416;-64
2022/01/12 07:22:20;;;;;;;20.40;9.82;;;;;;;-4.76;100.00;91481.78;5071264;28;20451;-64
2022/01/12 07:24:46;;;;;;;65.97;32.72;;;;;;;-4.87;100.00;91488.44;5071070;28;20028;-64
2022/01/12 07:27:11;;;;;;;46.78;24.50;;;;;;;-4.66;100.00;91480.38;5071169;28;20031;-64
2022/01/12 07:29:37;;;;;;;23.60;13.25;;;;;;;-4.81;100.00;91487.59;5071011;28;20028;-64
2022/01/12 07:32:03;;;;;;;24.58;13.35;;;;;;;-4.91;100.00;91497.59;5071117;28;20150;-64
2022/01/12 07:34:29;;;;;;;28.40;14.77;;;;;;;-4.79;100.00;91493.38;5070937;28;20482;-64
2022/01/12 07:36:54;;;;;;;24.33;13.25;;;;;;;-4.56;100.00;91500.72;5070950;28;20021;-64
2022/01/12 07:39:20;;;;;;;25.63;13.85;;;;;;;-4.47;100.00;91502.09;5070929;28;20035;-64
2022/01/12 07:41:45;;;;;;;43.63;24.10;;;;;;;-4.86;100.00;91503.00;5070970;28;20024;-64
2022/01/12 07:44:11;;;;;;;39.20;19.60;;;;;;;-5.08;100.00;91505.00;5070750;28;20055;-63
2022/01/12 07:46:36;;;;;;;12.60;7.28;;;;;;;-5.36;100.00;91518.19;5070866;28;20474;-63
2022/01/12 07:49:02;;;;;;;18.80;9.45;;;;;;;-5.33;100.00;91515.19;5070978;28;20028;-63
2022/01/12 07:51:28;;;;;;;17.38;8.88;;;;;;;-5.40;100.00;91516.19;5070955;28;20036;-63
2022/01/12 07:53:53;;;;;;;16.70;8.40;;;;;;;-5.45;100.00;91520.16;5070795;28;20025;-63
2022/01/12 07:56:19;;;;;;;33.95;16.67;;;;;;;-5.30;100.00;91521.78;5070769;28;20028;-63
2022/01/12 07:58:44;;;;;;;21.08;11.70;;;;;;;-5.12;100.00;91525.34;5070771;28;20033;-64
2022/01/12 08:01:12;;;;;;;20.00;9.93;;;;;;;-4.93;100.00;91534.13;5070744;28;20552;-63
2022/01/12 08:03:38;;;;;;;29.52;14.43;;;;;;;-4.64;100.00;91535.47;5070696;28;20028;-63
2022/01/12 08:06:03;;;;;;;24.55;13.27;;;;;;;-4.23;100.00;91536.97;5070780;28;20056;-63
2022/01/12 08:08:29;;;;;;;24.08;12.68;;;;;;;-4.64;100.00;91537.28;5074396;28;20451;-63
2022/01/12 08:10:54;;;;;;;19.55;11.10;;;;;;;-5.04;100.00;91536.53;5074681;28;20020;-64
2022/01/12 08:13:20;;;;;;;21.52;10.45;;;;;;;-5.09;100.00;91533.72;5074755;28;20031;-63
2022/01/12 08:15:45;;;;;;;22.00;11.65;;;;;;;-4.97;100.00;91540.72;5074489;28;20064;-63
2022/01/12 08:18:11;;;;;;;22.23;11.20;;;;;;;-4.80;100.00;91548.09;5080294;28;20036;-63
2022/01/12 08:20:36;;;;;;;21.40;11.32;;;;;;;-5.04;100.00;91544.31;5076467;28;20025;-63
2022/01/12 08:23:02;;;;;;;36.45;19.73;;;;;;;-5.10;100.00;91552.88;5074648;28;20466;-63
2022/01/12 08:25:28;;;;;;;51.03;22.17;;;;;;;-5.02;100.00;91555.28;5074116;28;20029;-63
2022/01/12 08:27:54;;;;;;;18.85;11.93;;;;;;;-5.05;100.00;91563.47;5074373;28;20127;-63
2022/01/12 08:30:28;;;;;;;14.43;8.18;;;;;;;-4.94;100.00;91561.06;5073942;28;20104;-63
2022/01/12 08:32:54;;;;;;;41.35;20.13;;;;;;;-4.83;100.00;91559.66;5074157;28;20059;-63
2022/01/12 08:35:20;;;;;;;16.30;9.38;;;;;;;-5.06;100.00;91569.63;5073941;28;20025;-64
2022/01/12 08:37:46;;;;;;;25.83;16.60;;;;;;;-5.09;100.00;91573.44;5074255;28;20550;-64
2022/01/12 08:40:13;;;;;;;29.10;16.77;;;;;;;-5.24;100.00;91573.63;5074249;28;20024;-64
2022/01/12 08:42:39;;;;;;;37.22;22.58;;;;;;;-5.02;100.00;91570.88;5074310;28;20036;-64
2022/01/12 08:45:06;;;;;;;17.05;9.75;;;;;;;-5.39;100.00;91575.59;5074230;28;20077;-63
2022/01/12 08:47:32;;;;;;;19.48;11.07;;;;;;;-5.43;100.00;91575.22;5074161;28;20069;-64
2022/01/12 08:49:57;;;;;;;27.05;14.02;;;;;;;-5.45;100.00;91576.41;5056118;28;20354;-64
2022/01/12 08:52:24;;;;;;;31.65;13.75;;;;;;;-5.20;100.00;91574.84;5073999;28;20408;-63
2022/01/12 08:54:50;;;;;;;32.88;14.65;;;;;;;-5.07;100.00;91574.03;5073747;28;20111;-64
2022/01/12 08:57:16;;;;;;;15.38;8.60;;;;;;;-5.13;100.00;91573.03;5072403;28;20032;-65
2022/01/12 08:59:42;;;;;;;65.00;29.63;;;;;;;-5.10;100.00;91578.81;5093498;28;20442;-63
2022/01/12 09:02:08;;;;;;;27.67;12.48;;;;;;;-5.17;100.00;91574.44;5093559;28;20406;-64
2022/01/12 09:04:34;;;;;;;29.05;13.93;;;;;;;-5.04;100.00;91573.66;5093698;28;20042;-64
2022/01/12 09:07:00;;;;;;;59.40;21.30;;;;;;;-4.95;100.00;91567.25;5093992;28;20028;-63
2022/01/12 09:09:26;;;;;;;24.30;11.43;;;;;;;-4.90;100.00;91572.63;5093661;28;20481;-63
2022/01/12 09:11:52;;;;;;;49.92;18.08;;;;;;;-4.98;100.00;91557.28;5093651;28;20030;-63
2022/01/12 09:14:18;;;;;;;43.33;19.80;;;;;;;-4.84;100.00;91576.25;5093625;28;20040;-63
2022/01/12 09:16:44;;;;;;;28.30;12.27;;;;;;;-4.86;100.00;91571.25;5093035;28;20034;-63
2022/01/12 09:19:10;;;;;;;13.60;7.18;;;;;;;-4.95;100.00;91572.44;5093400;28;20413;-63
2022/01/12 09:21:36;;;;;;;32.05;14.27;;;;;;;-4.80;100.00;91568.84;5093590;28;20123;-63
2022/01/12 09:24:01;;;;;;;32.60;17.00;;;;;;;-4.47;100.00;91563.59;5093228;28;20106;-63
2022/01/12 09:26:27;;;;;;;23.13;12.88;;;;;;;-4.41;100.00;91560.22;5093396;28;20455;-63
2022/01/12 09:28:53;;;;;;;40.45;18.48;;;;;;;-4.84;100.00;91573.66;5093657;28;20024;-63
2022/01/12 09:31:19;;;;;;;23.67;13.73;;;;;;;-4.59;100.00;91561.63;5092873;28;20557;-63
2022/01/12 09:33:48;;;;;;;19.42;8.98;;;;;;;-4.77;100.00;91571.81;5093158;28;20158;-63
2022/01/12 09:36:14;;;;;;;21.45;11.57;;;;;;;-4.75;100.00;91569.03;5092656;28;20031;-62
2022/01/12 09:38:39;;;;;;;30.52;15.57;;;;;;;-4.71;100.00;91567.66;5092999;28;20036;-62
2022/01/12 09:41:05;;;;;;;28.00;14.70;;;;;;;-4.86;100.00;91571.25;5093015;28;20099;-63
2022/01/12 09:43:33;;;;;;;20.60;11.23;;;;;;;-4.82;100.00;91561.25;5093005;28;20427;-63
2022/01/12 09:46:00;;;;;;;45.25;22.30;;;;;;;-4.67;100.00;91558.47;5092498;28;20043;-63
2022/01/12 09:48:26;;;;;;;42.70;23.73;;;;;;;-4.69;100.00;91573.44;5092708;28;20024;-63
2022/01/12 09:50:53;;;;;;;16.95;9.05;;;;;;;-4.79;100.00;91560.84;5092640;28;20024;-63
2022/01/12 09:53:19;;;;;;;13.18;6.05;;;;;;;-4.38;100.00;91565.00;5092734;28;20080;-62
2022/01/12 09:55:46;;;;;;;11.63;6.75;;;;;;;-4.16;100.00;91571.50;5092519;28;20031;-63
2022/01/12 09:58:11;;;;;;;17.17;10.93;;;;;;;-3.60;100.00;91564.91;5092660;28;20024;-63
2022/01/12 10:00:37;;;;;;;14.20;7.85;;;;;;;-3.23;100.00;91555.47;5092123;28;20024;-63
2022/01/12 10:03:11;;;;;;;14.50;8.13;;;;;;;-3.35;100.00;91563.94;5092785;28;20039;-63
2022/01/12 10:05:37;;;;;;;26.90;16.75;;;;;;;-2.90;100.00;91561.22;5096522;28;20063;-63
2022/01/12 10:08:11;;;;;;;50.88;24.75;;;;;;;-2.88;100.00;91564.41;5093558;28;20103;-64
2022/01/12 10:10:37;;;;;;;101.55;33.70;;;;;;;-3.04;97.48;91564.94;5092650;28;20084;-63
2022/01/12 10:13:03;;;;;;;23.23;14.52;;;;;;;-3.44;95.56;91565.22;5092837;28;20486;-63
2022/01/12 10:15:29;;;;;;;9.18;5.75;;;;;;;-3.37;97.41;91562.56;5091799;28;20051;-63
2022/01/12 10:18:02;;;;;;;24.05;14.68;;;;;;;-3.46;99.84;91563.81;5092278;28;20024;-63
2022/01/12 10:20:28;;;;;;;16.27;9.02;;;;;;;-3.47;95.59;91557.00;5092345;28;20085;-63
2022/01/12 10:23:04;;;;;;;40.05;19.45;;;;;;;-3.75;99.08;91559.97;5092317;28;20120;-63
2022/01/12 10:25:30;;;;;;;21.33;10.93;;;;;;;-3.49;100.00;91566.81;5092242;28;20032;-63
2022/01/12 10:27:57;;;;;;;30.48;14.93;;;;;;;-3.73;100.00;91563.97;5073798;28;20382;-63
2022/01/12 10:30:29;;;;;;;19.95;11.05;;;;;;;-3.67;100.00;91562.31;5087717;28;20125;-63
2022/01/12 10:33:12;;;;;;;19.65;9.18;;;;;;;-3.70;100.00;91560.13;5092212;28;20172;-71
2022/01/12 10:35:41;;;;;;;13.07;6.78;;;;;;;-3.74;100.00;91558.97;5092110;28;20499;-68
2022/01/12 10:38:12;;;;;;;18.45;10.07;;;;;;;-3.66;100.00;91550.91;5092007;28;20028;-67
2022/01/12 10:40:53;;;;;;;19.55;11.00;;;;;;;-3.83;100.00;91555.00;5091990;28;20470;-65
2022/01/12 10:43:39;;;;;;;22.85;12.82;;;;;;;-3.67;100.00;91564.91;5091984;28;20028;-66
2022/01/12 10:46:07;;;;;;;52.95;24.67;;;;;;;-3.65;100.00;91555.91;5091559;28;20024;-66
2022/01/12 10:48:40;;;;;;;34.95;17.13;;;;;;;-3.80;100.00;91557.19;5091830;28;20469;-65
2022/01/12 10:51:06;;;;;;;101.25;36.65;;;;;;;-3.39;100.00;91557.56;5092091;28;20493;-65
2022/01/12 10:53:34;;;;;;;90.40;32.75;;;;;;;-3.23;100.00;91555.47;5091827;28;20028;-65
2022/01/12 10:56:11;;;;;;;58.13;23.83;;;;;;;-3.12;100.00;91558.19;5091657;28;20035;-65
2022/01/12 10:58:40;;;;;;;38.05;17.65;;;;;;;-2.86;97.79;91559.78;5091834;28;20103;-65
2022/01/12 11:01:06;;;;;;;23.30;10.20;;;;;;;-2.90;93.75;91537.00;5091897;28;20039;-65
2022/01/12 11:03:32;;;;;;;20.15;9.52;;;;;;;-2.55;91.11;91561.53;5091658;28;20055;-65
2022/01/12 11:05:58;;;;;;;61.17;26.90;;;;;;;-2.18;92.14;91553.78;5091595;28;20044;-65
2022/01/12 11:08:26;;;;;;;16.38;7.80;;;;;;;-2.13;87.51;91559.13;5091649;28;20024;-65
2022/01/12 11:10:56;;;;;;;61.10;27.17;;;;;;;-2.75;89.69;91558.31;5091653;28;20110;-65
2022/01/12 11:13:24;;;;;;;14.23;8.15;;;;;;;-3.07;90.56;91560.16;5091561;28;20024;-65
2022/01/12 11:15:50;;;;;;;123.60;58.25;;;;;;;-2.99;93.76;91556.50;5091506;28;20103;-65
2022/01/12 11:18:20;;;;;;;30.58;16.25;;;;;;;-3.47;99.90;91557.00;5091553;28;20028;-65
2022/01/12 11:20:47;;;;;;;26.17;13.70;;;;;;;-3.52;100.00;91552.44;5091486;28;20489;-65
2022/01/12 11:23:18;;;;;;;32.92;17.15;;;;;;;-3.66;100.00;91541.31;5091824;28;20103;-65
2022/01/12 11:25:52;;;;;;;18.45;10.27;;;;;;;-3.44;100.00;91551.41;5091311;28;20056;-65
2022/01/12 11:28:35;;;;;;;34.85;17.30;;;;;;;-3.75;100.00;91547.78;5073114;28;20563;-65
2022/01/12 11:31:04;;;;;;;21.13;10.07;;;;;;;-3.97;100.00;91546.47;5091262;28;20058;-65
2022/01/12 11:33:30;;;;;;;29.45;14.93;;;;;;;-4.25;100.00;91551.97;5091311;28;20038;-64
2022/01/12 11:35:56;;;;;;;13.90;7.72;;;;;;;-4.27;100.00;91553.97;5091253;28;20028;-64
2022/01/12 11:38:31;;;;;;;18.42;11.60;;;;;;;-4.16;100.00;91558.53;5091319;28;20027;-64
2022/01/12 11:41:08;;;;;;;28.83;16.45;;;;;;;-4.12;100.00;91554.50;5091188;28;20413;-64
2022/01/12 11:43:42;;;;;;;32.00;16.45;;;;;;;-3.94;100.00;91553.88;5091185;28;20028;-64
2022/01/12 11:46:11;;;;;;;18.17;10.73;;;;;;;-3.62;100.00;91559.91;5073037;28;20110;-64
2022/01/12 11:48:46;;;;;;;30.48;12.73;;;;;;;-3.52;100.00;91565.44;5091171;28;20099;-65
2022/01/12 11:51:13;;;;;;;14.02;7.97;;;;;;;-3.70;100.00;91554.94;5092316;28;20034;-66
2022/01/12 11:53:55;;;;;;;19.25;9.75;;;;;;;-3.89;100.00;91569.63;5096895;28;20052;-65
2022/01/12 11:56:24;;;;;;;18.10;10.02;;;;;;;-3.61;100.00;91571.91;5091259;28;20032;-65
2022/01/12 11:58:55;;;;;;;10.43;6.72;;;;;;;-3.68;100.00;91566.72;5091079;28;20032;-65
2022/01/12 12:01:22;;;;;;;13.77;6.78;;;;;;;-3.55;100.00;91572.88;5091287;28;20024;-65
2022/01/12 12:04:02;;;;;;;28.80;15.32;;;;;;;-3.77;100.00;91569.78;5090837;28;20024;-65
2022/01/12 12:06:28;;;;;;;33.80;20.40;;;;;;;-3.82;100.00;91562.59;5090863;28;20076;-65
2022/01/12 12:09:02;;;;;;;36.50;19.05;;;;;;;-3.88;100.00;91573.81;5091070;28;20075;-66
2022/01/12 12:11:30;;;;;;;29.42;16.45;;;;;;;-3.63;100.00;91576.50;5091221;28;20036;-65
2022/01/12 12:14:01;;;;;;;17.60;8.63;;;;;;;-3.92;100.00;91583.84;5090817;28;20494;-65
2022/01/12 12:16:28;;;;;;;15.55;9.57;;;;;;;-3.88;100.00;91586.03;5090816;28;20044;-65
2022/01/12 12:18:54;;;;;;;11.63;7.25;;;;;;;-4.11;100.00;91584.69;5090862;28;20036;-64
2022/01/12 12:21:20;;;;;;;17.65;10.50;;;;;;;-4.11;100.00;91583.88;5090852;28;20071;-64
2022/01/12 12:23:47;;;;;;;12.65;8.00;;;;;;;-4.19;100.00;91586.72;5090617;28;20540;-65
2022/01/12 12:26:18;;;;;;;25.08;12.25;;;;;;;-4.00;100.00;91588.44;5090863;28;20058;-65
2022/01/12 12:28:55;;;;;;;58.97;26.38;;;;;;;-3.77;100.00;91598.38;5090881;28;20493;-65
2022/01/12 12:31:26;;;;;;;18.20;10.35;;;;;;;-3.63;100.00;91595.53;5090791;28;20462;-64
2022/01/12 12:34:02;;;;;;;16.98;9.27;;;;;;;-3.85;100.00;91594.19;5090683;28;20135;-65
2022/01/12 12:36:28;;;;;;;12.88;7.90;;;;;;;-3.74;100.00;91596.16;5090821;28;20032;-65
2022/01/12 12:39:04;;;;;;;16.60;8.43;;;;;;;-4.00;100.00;91599.63;5090693;28;20454;-65
2022/01/12 12:41:41;;;;;;;12.40;6.60;;;;;;;-3.95;100.00;91597.22;5090750;28;20089;-65
2022/01/12 12:44:18;;;;;;;18.60;11.10;;;;;;;-3.97;100.00;91603.63;5090636;28;20036;-65
2022/01/12 12:46:44;;;;;;;33.28;15.82;;;;;;;-3.69;100.00;91598.13;5090665;28;20044;-65
2022/01/12 12:49:09;;;;;;;13.45;7.43;;;;;;;-3.71;100.00;91610.53;5090643;28;20032;-65
2022/01/12 12:51:35;;;;;;;11.82;6.53;;;;;;;-3.64;100.00;91611.28;5090688;28;20040;-65
2022/01/12 12:54:00;;;;;;;10.90;6.50;;;;;;;-3.83;100.00;91606.97;5093889;28;20036;-65
2022/01/12 12:56:28;;;;;;;9.13;6.15;;;;;;;-3.46;100.00;91608.84;5094307;28;20040;-65